createdAt,value
2023-03-06T00:01:29.626Z,8.10
2023-03-06T00:03:57.640Z,7.00
2023-03-06T00:06:25.839Z,7.27
2023-03-06T00:08:54.208Z,7.40
2023-03-06T00:11:22.230Z,8.67
2023-03-06T00:13:53.147Z,7.83
2023-03-06T00:16:21.155Z,7.97
2023-03-06T00:18:49.069Z,6.77
2023-03-06T00:21:17.034Z,7.67
2023-03-06T00:23:45.195Z,7.87
2023-03-06T00:26:13.199Z,8.50
2023-03-06T00:28:43.294Z,8.50
2023-03-06T00:31:12.665Z,7.43
2023-03-06T00:33:40.711Z,6.90
2023-03-06T00:36:09.309Z,7.67
2023-03-06T00:38:37.380Z,7.53
2023-03-06T00:41:09.511Z,7.70
2023-03-06T00:43:37.489Z,8.07
2023-03-06T00:46:06.022Z,9.10
2023-03-06T00:48:35.877Z,8.63
2023-03-06T00:51:03.941Z,7.27
2023-03-06T00:53:31.904Z,7.87
2023-03-06T00:55:59.849Z,8.37
2023-03-06T00:58:27.974Z,8.27
2023-03-06T01:00:57.900Z,8.00
2023-03-06T01:03:25.843Z,7.77
2023-03-06T01:05:55.267Z,7.97
2023-03-06T01:08:23.274Z,8.60
2023-03-06T01:10:51.425Z,8.27
2023-03-06T01:13:19.461Z,8.37
2023-03-06T01:15:47.521Z,8.33
2023-03-06T01:18:15.638Z,8.20
2023-03-06T01:20:43.628Z,9.10
2023-03-06T01:23:13.045Z,8.30
2023-03-06T01:25:40.994Z,7.63
2023-03-06T01:28:09.006Z,8.37
2023-03-06T01:30:37.382Z,7.93
2023-03-06T01:33:05.304Z,8.27
2023-03-06T01:35:33.370Z,8.93
2023-03-06T01:38:01.307Z,8.43
2023-03-06T01:40:32.416Z,7.57
2023-03-06T01:43:00.460Z,9.18
2023-03-06T01:46:20.512Z,7.83
2023-03-06T01:48:51.339Z,8.50
2023-03-06T01:51:19.453Z,8.38
2023-03-06T01:53:49.377Z,8.77
2023-03-06T01:56:19.203Z,8.50
2023-03-06T01:58:49.751Z,8.70
2023-03-06T02:01:18.952Z,8.48
2023-03-06T02:03:49.695Z,8.50
2023-03-06T02:06:21.698Z,8.38
2023-03-06T02:08:52.730Z,9.10
2023-03-06T02:11:46.962Z,8.45
2023-03-06T02:14:17.907Z,8.53
2023-03-06T02:16:46.225Z,8.40
2023-03-06T02:19:30.012Z,8.87
2023-03-06T02:21:58.059Z,8.73
2023-03-06T02:24:36.129Z,8.90
2023-03-06T02:27:07.809Z,8.77
2023-03-06T02:29:36.339Z,8.83
2023-03-06T02:32:05.592Z,9.00
2023-03-06T02:34:51.257Z,9.07
2023-03-06T02:37:19.186Z,9.63
2023-03-06T02:39:51.157Z,9.10
2023-03-06T02:42:22.688Z,8.40
2023-03-06T02:47:18.750Z,8.83
2023-03-06T02:49:46.857Z,9.07
2023-03-06T02:52:14.828Z,9.10
2023-03-06T02:54:42.797Z,9.07
2023-03-06T02:57:11.136Z,9.17
2023-03-06T02:59:40.886Z,9.37
2023-03-06T03:02:08.800Z,9.03
2023-03-06T03:04:36.880Z,9.17
2023-03-06T03:07:05.202Z,9.53
2023-03-06T03:09:36.921Z,9.23
2023-03-06T03:12:06.660Z,9.10
2023-03-06T03:14:35.093Z,9.67
2023-03-06T03:17:05.611Z,9.30
2023-03-06T03:19:33.922Z,9.50
2023-03-06T03:22:01.968Z,9.40
2023-03-06T03:24:29.942Z,9.10
2023-03-06T03:26:58.024Z,9.27
2023-03-06T03:29:26.353Z,9.07
2023-03-06T03:31:55.244Z,10.07
2023-03-06T03:36:55.943Z,9.13
2023-03-06T03:39:24.137Z,9.87
2023-03-06T03:41:52.144Z,10.13
2023-03-06T03:44:20.956Z,9.00
2023-03-06T03:46:49.900Z,10.80
2023-03-06T03:49:22.007Z,11.57
2023-03-06T03:51:52.727Z,10.13
2023-03-06T03:54:22.122Z,10.37
2023-03-06T03:56:51.852Z,10.37
2023-03-06T03:59:26.037Z,10.50
2023-03-06T04:02:17.105Z,10.03
2023-03-06T04:04:56.145Z,10.67
2023-03-06T04:07:25.746Z,12.57
2023-03-06T04:09:54.808Z,10.02
2023-03-06T04:12:23.280Z,11.47
2023-03-06T04:14:51.604Z,10.67
2023-03-06T04:17:20.098Z,11.33
2023-03-06T04:19:48.897Z,9.87
2023-03-06T04:22:18.149Z,10.27
2023-03-06T04:24:49.408Z,10.93
2023-03-06T04:27:18.568Z,10.00
2023-03-06T04:29:46.581Z,10.90
2023-03-06T04:32:14.751Z,11.17
2023-03-06T04:34:42.908Z,10.90
2023-03-06T04:37:19.087Z,11.23
2023-03-06T04:39:48.456Z,10.73
2023-03-06T04:42:16.456Z,11.57
2023-03-06T04:44:44.622Z,10.60
2023-03-06T04:47:13.199Z,11.37
2023-03-06T04:49:41.307Z,12.43
2023-03-06T04:52:09.308Z,11.73
2023-03-06T04:54:37.386Z,11.50
2023-03-06T04:57:06.754Z,10.97
2023-03-06T04:59:34.750Z,11.40
2023-03-06T05:02:02.853Z,10.63
2023-03-06T05:04:31.886Z,11.23
2023-03-06T05:06:59.812Z,10.93
2023-03-06T05:09:27.750Z,11.20
2023-03-06T05:11:55.793Z,9.80
2023-03-06T05:14:25.107Z,10.50
2023-03-06T05:16:53.033Z,11.00
2023-03-06T05:19:20.960Z,9.70
2023-03-06T05:21:48.984Z,9.83
2023-03-06T05:24:16.924Z,11.37
2023-03-06T05:26:44.841Z,9.70
2023-03-06T05:29:12.814Z,10.63
2023-03-06T05:31:42.183Z,10.67
2023-03-06T05:34:13.985Z,11.07
2023-03-06T05:36:42.551Z,10.60
2023-03-06T05:39:11.028Z,10.30
2023-03-06T05:41:38.961Z,10.77
2023-03-06T05:44:06.933Z,10.13
2023-03-06T05:46:34.906Z,9.63
2023-03-06T05:49:04.215Z,10.47
2023-03-06T05:51:32.649Z,8.83
2023-03-06T05:54:00.670Z,9.80
2023-03-06T05:56:28.598Z,10.00
2023-03-06T05:58:56.502Z,9.73
2023-03-06T06:01:25.386Z,9.77
2023-03-06T06:03:53.505Z,9.37
2023-03-06T06:06:22.877Z,10.33
2023-03-06T06:08:50.898Z,9.80
2023-03-06T06:11:20.825Z,9.03
2023-03-06T06:13:49.738Z,10.37
2023-03-06T06:16:19.318Z,9.93
2023-03-06T06:18:47.636Z,10.77
2023-03-06T06:25:23.823Z,10.23
2023-03-06T06:27:51.739Z,9.23
2023-03-06T06:30:20.072Z,8.07
2023-03-06T06:32:48.242Z,8.13
2023-03-06T06:35:16.855Z,8.87
2023-03-06T06:37:44.927Z,7.73
2023-03-06T06:40:13.555Z,8.80
2023-03-06T06:42:44.030Z,9.97
2023-03-06T06:45:12.772Z,9.57
2023-03-06T06:47:41.664Z,8.53
2023-03-06T06:50:13.029Z,8.53
2023-03-06T06:52:41.195Z,7.97
2023-03-06T06:55:10.124Z,8.13
2023-03-06T06:57:38.099Z,8.13
2023-03-06T07:00:09.528Z,8.97
2023-03-06T07:02:37.560Z,9.80
2023-03-06T07:05:06.232Z,8.37
2023-03-06T07:07:36.260Z,8.20
2023-03-06T07:10:05.772Z,7.77
2023-03-06T07:12:35.220Z,7.90
2023-03-06T07:15:04.131Z,8.00
2023-03-06T07:17:33.602Z,8.20
2023-03-06T07:20:01.585Z,6.93
2023-03-06T07:22:35.858Z,8.17
2023-03-06T07:25:10.418Z,7.93
2023-03-06T07:27:38.590Z,7.80
2023-03-06T07:30:07.581Z,8.03
2023-03-06T07:32:36.926Z,8.33
2023-03-06T07:35:19.314Z,6.50
2023-03-06T07:37:48.140Z,7.73
2023-03-06T07:40:16.463Z,7.60
2023-03-06T07:42:44.414Z,6.40
2023-03-06T07:45:15.374Z,7.72
2023-03-06T07:47:44.854Z,6.97
2023-03-06T07:50:13.457Z,7.67
2023-03-06T07:52:41.389Z,7.80
2023-03-06T07:55:10.888Z,8.63
2023-03-06T07:57:39.564Z,8.13
2023-03-06T08:00:11.860Z,8.00
2023-03-06T08:02:44.704Z,8.20
2023-03-06T08:05:15.272Z,7.40
2023-03-06T08:07:43.405Z,8.13
2023-03-06T08:10:14.939Z,7.80
2023-03-06T08:12:43.029Z,8.50
2023-03-06T08:15:12.357Z,8.00
2023-03-06T08:17:40.508Z,6.63
2023-03-06T08:20:11.441Z,7.80
2023-03-06T08:22:39.811Z,7.68
2023-03-06T08:25:09.224Z,6.83
2023-03-06T08:27:37.802Z,7.67
2023-03-06T08:30:06.897Z,7.73
2023-03-06T08:32:36.058Z,8.00
2023-03-06T08:35:04.706Z,7.93
2023-03-06T08:37:34.088Z,6.87
2023-03-06T08:40:04.589Z,7.80
2023-03-06T08:42:32.711Z,6.60
2023-03-06T08:45:00.749Z,6.23
2023-03-06T08:47:28.788Z,6.27
2023-03-06T08:49:57.175Z,7.40
2023-03-06T08:52:26.263Z,5.50
2023-03-06T08:54:55.551Z,6.77
2023-03-06T08:57:23.943Z,6.87
2023-03-06T08:59:51.882Z,7.33
2023-03-06T09:02:19.996Z,7.60
2023-03-06T09:04:48.006Z,6.77
2023-03-06T09:07:15.960Z,7.17
2023-03-06T09:09:44.117Z,8.07
2023-03-06T09:12:13.581Z,6.87
2023-03-06T09:14:41.537Z,6.93
2023-03-06T09:17:09.547Z,7.60
2023-03-06T09:19:37.741Z,7.90
2023-03-06T09:22:05.722Z,8.23
2023-03-06T09:24:34.242Z,7.20
2023-03-06T09:27:02.287Z,7.30
2023-03-06T09:29:31.588Z,7.87
2023-03-06T09:31:59.798Z,7.97
2023-03-06T09:34:28.229Z,7.33
2023-03-06T09:36:57.650Z,7.47
2023-03-06T09:39:27.220Z,7.80
2023-03-06T09:41:57.435Z,7.70
2023-03-06T09:44:28.659Z,7.83
2023-03-06T09:47:39.347Z,8.97
2023-03-06T09:50:23.051Z,8.65
2023-03-06T09:53:04.129Z,7.53
2023-03-06T09:55:34.221Z,7.00
2023-03-06T09:58:07.368Z,7.53
2023-03-06T10:00:39.691Z,7.57
2023-03-06T10:03:18.889Z,7.43
2023-03-06T10:05:51.081Z,7.23
2023-03-06T10:08:25.822Z,6.67
2023-03-06T10:11:01.917Z,7.37
2023-03-06T10:13:38.326Z,7.37
2023-03-06T10:16:17.135Z,7.70
2023-03-06T10:18:46.739Z,6.80
2023-03-06T10:21:26.116Z,7.63
2023-03-06T10:23:55.628Z,7.17
2023-03-06T10:26:26.803Z,7.10
2023-03-06T10:29:10.016Z,7.97
2023-03-06T10:31:41.085Z,7.27
2023-03-06T10:36:44.967Z,6.70
2023-03-06T10:39:17.202Z,6.63
2023-03-06T10:41:46.325Z,6.50
2023-03-06T10:44:26.916Z,6.07
2023-03-06T10:46:56.360Z,6.53
2023-03-06T10:49:32.166Z,6.70
2023-03-06T10:52:03.105Z,6.10
2023-03-06T10:54:33.089Z,6.65
2023-03-06T10:57:19.224Z,6.40
2023-03-06T10:59:53.532Z,6.40
2023-03-06T11:02:28.971Z,5.50
2023-03-06T11:05:00.047Z,4.93
2023-03-06T11:10:03.724Z,4.73
2023-03-06T11:12:33.406Z,5.20
2023-03-06T11:15:21.986Z,4.90
2023-03-06T11:18:03.626Z,5.90
2023-03-06T11:20:50.519Z,5.40
2023-03-06T11:23:29.091Z,5.43
2023-03-06T11:26:02.248Z,5.30
2023-03-06T11:28:32.863Z,4.70
2023-03-06T11:31:04.959Z,5.70
2023-03-06T11:33:40.282Z,4.93
2023-03-06T11:36:16.464Z,5.03
2023-03-06T11:38:50.038Z,4.97
2023-03-06T11:41:29.871Z,5.10
2023-03-06T11:44:04.380Z,5.03
2023-03-06T11:46:38.698Z,5.33
2023-03-06T11:49:16.805Z,4.13
2023-03-06T11:51:51.503Z,5.20
2023-03-06T11:54:19.665Z,4.50
2023-03-06T11:56:56.046Z,4.40
2023-03-06T11:59:55.955Z,5.13
2023-03-06T12:02:39.328Z,4.80
2023-03-06T12:05:28.456Z,4.47
2023-03-06T12:08:04.481Z,4.70
2023-03-06T12:10:37.185Z,4.50
2023-03-06T12:13:27.828Z,4.23
2023-03-06T12:16:18.137Z,4.75
2023-03-06T12:18:54.068Z,5.78
2023-03-06T12:21:32.486Z,3.93
2023-03-06T12:24:12.723Z,4.37
2023-03-06T12:27:02.876Z,3.90
2023-03-06T12:29:49.067Z,4.17
2023-03-06T12:32:30.405Z,4.07
2023-03-06T12:35:24.304Z,4.17
2023-03-06T12:38:02.220Z,4.53
2023-03-06T12:40:48.703Z,3.10
2023-03-06T12:43:50.142Z,3.37
2023-03-06T12:46:21.576Z,3.40
2023-03-06T12:49:05.336Z,2.87
2023-03-06T12:51:34.745Z,2.90
2023-03-06T12:54:04.139Z,3.60
2023-03-06T12:56:35.343Z,3.13
2023-03-06T12:59:03.361Z,3.10
2023-03-06T13:01:57.506Z,2.80
2023-03-06T13:04:36.402Z,2.67
2023-03-06T13:07:22.858Z,2.60
2023-03-06T13:10:06.614Z,3.00
2023-03-06T13:12:50.396Z,3.90
2023-03-06T13:15:34.708Z,4.63
2023-03-06T13:18:03.438Z,4.50
2023-03-06T13:20:36.521Z,4.27
2023-03-06T13:23:53.034Z,3.80
2023-03-06T13:26:50.724Z,4.33
2023-03-06T13:29:52.463Z,4.47
2023-03-06T13:32:31.922Z,4.37
2023-03-06T13:35:00.113Z,4.50
2023-03-06T13:37:52.870Z,4.10
2023-03-06T13:40:33.559Z,3.53
2023-03-06T13:43:18.247Z,3.60
2023-03-06T13:45:49.022Z,3.60
2023-03-06T13:48:44.174Z,3.10
2023-03-06T13:52:20.689Z,2.83
2023-03-06T13:54:59.417Z,2.83
2023-03-06T13:57:49.107Z,2.93
2023-03-06T14:00:33.659Z,3.30
2023-03-06T14:03:23.365Z,2.80
2023-03-06T14:05:52.765Z,3.03
2023-03-06T14:08:22.631Z,3.10
2023-03-06T14:11:01.683Z,3.37
2023-03-06T14:13:45.424Z,3.20
2023-03-06T14:16:21.048Z,3.53
2023-03-06T14:18:51.630Z,3.20
2023-03-06T14:21:30.455Z,2.85
2023-03-06T14:24:00.787Z,3.60
2023-03-06T14:26:30.899Z,3.53
2023-03-06T14:29:00.560Z,2.93
2023-03-06T14:31:31.591Z,3.80
2023-03-06T14:36:35.193Z,3.20
2023-03-06T14:39:08.817Z,3.07
2023-03-06T14:41:37.975Z,3.00
2023-03-06T14:44:21.607Z,3.20
2023-03-06T14:46:51.642Z,2.90
2023-03-06T14:49:22.614Z,2.97
2023-03-06T14:54:23.362Z,3.80
2023-03-06T14:56:54.614Z,3.00
2023-03-06T14:59:26.938Z,2.90
2023-03-06T15:02:00.161Z,2.20
2023-03-06T15:04:32.666Z,3.53
2023-03-06T15:07:01.133Z,3.40
2023-03-06T15:09:32.712Z,3.63
2023-03-06T15:12:02.909Z,2.70
2023-03-06T15:14:34.273Z,2.30
2023-03-06T15:17:24.996Z,2.87
2023-03-06T15:19:56.378Z,2.50
2023-03-06T15:22:30.791Z,2.67
2023-03-06T15:25:20.352Z,2.10
2023-03-06T15:27:54.408Z,2.37
2023-03-06T15:30:25.109Z,2.17
2023-03-06T15:32:53.365Z,2.13
2023-03-06T15:35:31.970Z,2.33
2023-03-06T15:38:00.610Z,2.80
2023-03-06T15:40:31.190Z,2.90
2023-03-06T15:43:00.007Z,2.63
2023-03-06T15:45:29.955Z,3.10
2023-03-06T15:47:58.016Z,3.00
2023-03-06T15:50:29.053Z,7.23
2023-03-06T15:52:58.591Z,6.00
2023-03-06T15:55:26.959Z,4.03
2023-03-06T15:57:58.618Z,4.00
2023-03-06T16:00:29.318Z,3.50
2023-03-06T16:04:12.525Z,3.70
2023-03-06T16:06:40.622Z,3.70
2023-03-06T16:09:10.668Z,3.63
2023-03-06T16:11:43.896Z,3.20
2023-03-06T16:14:24.041Z,3.63
2023-03-06T16:16:54.126Z,3.10
2023-03-06T16:19:26.375Z,3.57
2023-03-06T16:21:56.052Z,2.97
2023-03-06T16:24:26.230Z,2.47
2023-03-06T16:26:55.448Z,2.07
2023-03-06T16:29:25.409Z,1.90
2023-03-06T16:31:55.094Z,2.37
2023-03-06T16:34:23.256Z,2.30
2023-03-06T16:36:51.695Z,2.10
2023-03-06T16:39:22.398Z,2.33
2023-03-06T16:41:52.051Z,2.72
2023-03-06T16:44:20.610Z,2.27
2023-03-06T16:46:50.894Z,2.30
2023-03-06T16:49:21.032Z,2.28
2023-03-06T16:51:49.302Z,2.30
2023-03-06T16:54:17.441Z,1.70
2023-03-06T16:56:45.944Z,2.20
2023-03-06T16:59:15.300Z,2.10
2023-03-06T17:01:43.898Z,2.40
2023-03-06T17:04:12.576Z,2.80
2023-03-06T17:06:41.748Z,2.13
2023-03-06T17:09:11.114Z,2.50
2023-03-06T17:11:39.596Z,2.20
2023-03-06T17:14:07.855Z,2.40
2023-03-06T17:16:40.290Z,2.67
2023-03-06T17:19:08.422Z,2.50
2023-03-06T17:21:38.446Z,2.30
2023-03-06T17:24:07.320Z,2.90
2023-03-06T17:27:26.164Z,2.43
2023-03-06T17:29:56.977Z,2.63
2023-03-06T17:32:27.109Z,2.70
2023-03-06T17:34:55.390Z,2.38
2023-03-06T17:37:23.420Z,3.20
2023-03-06T17:39:51.488Z,2.77
2023-03-06T17:42:19.486Z,3.20
2023-03-06T17:44:47.962Z,2.77
2023-03-06T17:47:15.934Z,3.50
2023-03-06T17:49:45.541Z,3.07
2023-03-06T17:52:13.511Z,2.97
2023-03-06T17:54:41.526Z,3.00
2023-03-06T17:57:09.503Z,2.60
2023-03-06T17:59:37.475Z,3.40
2023-03-06T18:02:06.436Z,2.67
2023-03-06T18:04:34.588Z,2.83
2023-03-06T18:07:04.088Z,2.80
2023-03-06T18:09:32.418Z,2.97
2023-03-06T18:12:00.368Z,2.47
2023-03-06T18:14:28.344Z,3.67
2023-03-06T18:16:56.328Z,3.10
2023-03-06T18:19:24.319Z,2.40
2023-03-06T18:21:52.417Z,2.83
2023-03-06T18:24:21.796Z,2.87
2023-03-06T18:26:49.921Z,2.70
2023-03-06T18:29:17.893Z,2.87
2023-03-06T18:31:49.259Z,3.47
2023-03-06T18:34:17.987Z,4.00
2023-03-06T18:36:47.272Z,3.90
2023-03-06T18:39:15.993Z,2.63
2023-03-06T18:41:45.429Z,3.07
2023-03-06T18:44:15.097Z,2.80
2023-03-06T18:46:43.249Z,2.73
2023-03-06T18:49:12.619Z,4.87
2023-03-06T18:51:40.752Z,3.97
2023-03-06T18:54:09.659Z,3.23
2023-03-06T18:56:39.424Z,3.70
2023-03-06T18:59:08.923Z,3.50
2023-03-06T19:01:37.777Z,4.17
2023-03-06T19:04:06.314Z,3.93
2023-03-06T19:06:34.501Z,4.27
2023-03-06T19:09:02.607Z,4.20
2023-03-06T19:11:31.951Z,3.60
2023-03-06T19:14:00.486Z,4.77
2023-03-06T19:16:31.211Z,4.80
2023-03-06T19:19:00.531Z,3.72
2023-03-06T19:21:29.353Z,9.23
2023-03-06T19:23:58.117Z,2.70
2023-03-06T19:26:27.048Z,2.80
2023-03-06T19:28:55.108Z,2.33
2023-03-06T19:31:25.948Z,3.27
2023-03-06T19:33:57.683Z,3.15
2023-03-06T19:36:28.898Z,3.20
2023-03-06T19:38:57.823Z,3.57
2023-03-06T19:41:26.585Z,2.90
2023-03-06T19:43:56.824Z,2.43
2023-03-06T19:46:26.224Z,2.50
2023-03-06T19:49:05.662Z,3.73
2023-03-06T19:51:33.640Z,3.47
2023-03-06T19:54:01.644Z,3.67
2023-03-06T19:56:31.901Z,3.80
2023-03-06T19:59:00.096Z,2.72
2023-03-06T20:01:29.117Z,4.23
2023-03-06T20:03:59.992Z,4.47
2023-03-06T20:06:29.826Z,3.33
2023-03-06T20:08:58.298Z,2.97
2023-03-06T20:11:30.324Z,3.43
2023-03-06T20:14:00.799Z,3.57
2023-03-06T20:16:30.037Z,3.60
2023-03-06T20:19:01.166Z,4.23
2023-03-06T20:21:31.107Z,5.80
2023-03-06T20:23:59.326Z,5.20
2023-03-06T20:26:29.501Z,6.10
2023-03-06T20:28:59.197Z,5.90
2023-03-06T20:31:30.263Z,4.97
2023-03-06T20:36:30.102Z,5.23
2023-03-06T20:39:00.777Z,5.30
2023-03-06T20:41:30.815Z,5.10
2023-03-06T20:44:00.549Z,14.27
2023-03-06T20:46:28.878Z,9.53
2023-03-06T20:48:58.148Z,6.47
2023-03-06T20:51:29.051Z,5.90
2023-03-06T20:53:57.516Z,6.25
2023-03-06T20:56:27.469Z,5.50
2023-03-06T20:58:55.418Z,5.50
2023-03-06T21:01:24.937Z,5.30
2023-03-06T21:03:53.340Z,5.03
2023-03-06T21:06:22.150Z,4.70
2023-03-06T21:08:51.716Z,4.73
2023-03-06T21:11:19.701Z,4.77
2023-03-06T21:13:47.778Z,5.03
2023-03-06T21:16:18.460Z,5.03
2023-03-06T21:18:46.865Z,4.07
2023-03-06T21:21:18.437Z,5.03
2023-03-06T21:23:47.239Z,5.17
2023-03-06T21:26:18.479Z,4.43
2023-03-06T21:28:46.691Z,4.73
2023-03-06T21:31:16.910Z,5.47
2023-03-06T21:33:47.598Z,4.72
2023-03-06T21:36:19.606Z,4.63
2023-03-06T21:38:48.706Z,4.93
2023-03-06T21:41:20.335Z,4.77
2023-03-06T21:43:48.356Z,4.90
2023-03-06T21:46:16.354Z,4.87
2023-03-06T21:48:44.617Z,4.10
2023-03-06T21:51:15.815Z,4.70
2023-03-06T21:53:44.946Z,5.00
2023-03-06T21:56:14.168Z,4.10
2023-03-06T21:58:43.599Z,5.10
2023-03-06T22:01:11.738Z,4.90
2023-03-06T22:03:40.075Z,5.07
2023-03-06T22:06:10.079Z,4.60
2023-03-06T22:08:38.067Z,4.63
2023-03-06T22:11:07.329Z,4.23
2023-03-06T22:13:35.282Z,4.00
2023-03-06T22:16:05.613Z,4.50
2023-03-06T22:18:33.982Z,4.18
2023-03-06T22:21:02.101Z,4.10
2023-03-06T22:23:30.064Z,4.50
2023-03-06T22:26:02.573Z,4.30
2023-03-06T22:28:30.637Z,4.00
2023-03-06T22:31:07.339Z,3.53
2023-03-06T22:33:35.334Z,3.83
2023-03-06T22:36:06.278Z,3.97
2023-03-06T22:41:02.823Z,3.73
2023-03-06T22:43:31.124Z,3.80
2023-03-06T22:46:02.075Z,4.03
2023-03-06T22:48:31.983Z,3.42
2023-03-06T22:51:03.735Z,3.27
2023-03-06T22:53:32.001Z,3.33
2023-03-06T22:56:00.405Z,3.40
2023-03-06T22:58:34.281Z,4.23
2023-03-06T23:01:06.452Z,4.07
2023-03-06T23:03:36.211Z,3.27
2023-03-06T23:06:07.530Z,3.20
2023-03-06T23:08:35.712Z,3.20
2023-03-06T23:11:03.610Z,3.20
2023-03-06T23:13:50.350Z,3.47
2023-03-06T23:16:37.860Z,3.43
2023-03-06T23:19:26.690Z,3.30
2023-03-06T23:22:14.379Z,3.60
2023-03-06T23:25:01.253Z,3.40
2023-03-06T23:27:29.478Z,3.30
2023-03-06T23:29:59.121Z,3.17
2023-03-06T23:32:27.420Z,2.97
2023-03-06T23:34:56.780Z,4.10
2023-03-06T23:37:24.891Z,3.67
2023-03-06T23:39:53.025Z,3.77
2023-03-06T23:42:21.050Z,3.43
2023-03-06T23:44:49.400Z,3.23
2023-03-06T23:47:20.025Z,3.00
2023-03-06T23:49:48.037Z,3.15
2023-03-06T23:52:17.361Z,2.80
2023-03-06T23:54:45.269Z,3.80
2023-03-06T23:57:13.237Z,3.03
2023-03-06T23:59:41.147Z,3.73
